Perulpa — 29145QE — position and weather

sailwx.info

Track history (hours):
 
Tides and Currents Weather Stations Pressure Air Temp Water Temp Dewpoint Dewpoint Depression Visibility Wind Speed Wind Dir Waves Ship Positions

Perulpa

Last reported at 2018-Aug-18 00:28 UTC. Time now 2018-Aug-18 00:45 UTC.
Position S 27°39' E 153°23'.

Length 24 m.

Type: Passenger vessel. MMSI: 503701100.

Date/timePositionNaut miles runAvg speedWind from/ knotsBaromVisibWave heightAir tempDewpointWater temp
2018-Aug-18 00:28S 27°39' E 153°23'4 6.4
2018-Aug-17 23:51S 27°37' E 153°19'410.7
2018-Aug-17 23:28S 27°39' E 153°23'4 4.4
2018-Aug-17 22:32S 27°37' E 153°19'0 0.1
2018-Aug-17 22:28S 27°37' E 153°19'4 8.1
2018-Aug-17 22:00S 27°38' E 153°23'4 5.8
2018-Aug-17 21:21S 27°37' E 153°19'410.8
2018-Aug-17 21:00S 27°38' E 153°23'1 0.0
2018-Aug-17 09:17S 27°39' E 153°23'2 6.6
2018-Aug-17 08:59S 27°39' E 153°21'1 2.2
2018-Aug-17 08:30S 27°38' E 153°22'1 1.5
2018-Aug-17 08:00S 27°39' E 153°21'0 0.8
2018-Aug-17 07:30S 27°39' E 153°21'1 1.6
2018-Aug-17 07:00S 27°38' E 153°22'1 1.0
2018-Aug-17 06:28S 27°39' E 153°21'0 0.8
2018-Aug-17 06:00S 27°38' E 153°21'0 0.4
2018-Aug-17 05:30S 27°38' E 153°21'1 1.0
2018-Aug-17 05:00S 27°38' E 153°22'1 1.6
2018-Aug-17 04:20S 27°39' E 153°21'2 0.6
2018-Aug-17 01:30S 27°39' E 153°23'3 6.4
2018-Aug-17 00:58S 27°35' E 153°24'3 0.2
2018-Aug-16 09:17S 27°39' E 153°23'2 5.7
2018-Aug-16 09:00S 27°38' E 153°21'0 0.3
2018-Aug-16 08:29S 27°38' E 153°21'0 0.8
2018-Aug-16 07:59S 27°39' E 153°21'0 0.5
2018-Aug-16 07:30S 27°39' E 153°21'0 0.7
2018-Aug-16 07:01S 27°38' E 153°21'0 0.7
2018-Aug-16 06:30S 27°39' E 153°21'0 0.8
2018-Aug-16 06:00S 27°38' E 153°21'0 0.1
2018-Aug-16 05:28S 27°38' E 153°21'1 1.5
2018-Aug-16 04:57S 27°38' E 153°22'3 5.6
2018-Aug-16 04:28S 27°37' E 153°19'4 2.3
2018-Aug-16 02:46S 27°39' E 153°23'2 4.3
2018-Aug-16 02:24S 27°39' E 153°21'1 0.8
2018-Aug-16 01:44S 27°38' E 153°21'1 6.1
2018-Aug-16 01:30S 27°38' E 153°22'2 2.1
2018-Aug-16 00:45S 27°38' E 153°20'2 6.4
2018-Aug-16 00:26S 27°38' E 153°23'4 3.5
2018-Aug-15 23:24S 27°37' E 153°19'3 7.9
2018-Aug-15 22:59S 27°38' E 153°22'3 3.5
2018-Aug-15 22:16S 27°37' E 153°20'411.4
2018-Aug-15 21:58S 27°38' E 153°23'4 5.7
2018-Aug-15 21:13S 27°37' E 153°19'313.2
2018-Aug-15 21:00S 27°38' E 153°22'1 0.1
2018-Aug-15 09:16S 27°38' E 153°23'2 6.2
2018-Aug-15 09:00S 27°38' E 153°21'1 1.1
2018-Aug-15 08:30S 27°39' E 153°21'0 0.9
2018-Aug-15 08:00S 27°38' E 153°21'0 0.8
2018-Aug-15 07:29S 27°39' E 153°21'0 1.0
2018-Aug-15 07:00S 27°38' E 153°21'0 0.4
2018-Aug-15 06:30S 27°38' E 153°21'0 0.8
2018-Aug-15 06:00S 27°38' E 153°22'1 1.3
2018-Aug-15 05:30S 27°39' E 153°21'1 2.1
2018-Aug-15 05:01S 27°38' E 153°22'3 5.3
2018-Aug-15 04:27S 27°37' E 153°19'4 2.4
2018-Aug-15 02:48S 27°39' E 153°23'1 4.1
2018-Aug-15 02:31S 27°38' E 153°22'3 4.3
2018-Aug-15 01:50S 27°37' E 153°19'3 9.1
2018-Aug-15 01:29S 27°38' E 153°22'2 2.0
2018-Aug-15 00:44S 27°39' E 153°21'2 6.2
2018-Aug-15 00:28S 27°38' E 153°22'3 2.9
2018-Aug-14 23:23S 27°37' E 153°19'3 7.8
2018-Aug-14 22:59S 27°38' E 153°22'3 4.6
2018-Aug-14 22:16S 27°37' E 153°19'413.2
2018-Aug-14 21:57S 27°38' E 153°23'4 5.7
2018-Aug-14 21:12S 27°37' E 153°19'313.4
2018-Aug-14 20:59S 27°38' E 153°22'1 0.1
2018-Aug-14 09:16S 27°38' E 153°24'2 7.4
2018-Aug-14 09:00S 27°38' E 153°21'0 0.8
2018-Aug-14 08:30S 27°39' E 153°21'0 0.2
2018-Aug-14 08:00S 27°39' E 153°21'0 0.5
2018-Aug-14 07:29S 27°39' E 153°21'0 0.0
2018-Aug-14 06:59S 27°39' E 153°21'1 1.4
2018-Aug-14 06:31S 27°38' E 153°21'1 1.3
2018-Aug-14 05:59S 27°38' E 153°21'0 1.0
2018-Aug-14 05:30S 27°39' E 153°21'1 2.1
2018-Aug-14 05:00S 27°38' E 153°22'3 5.4
2018-Aug-14 04:29S 27°37' E 153°19'4 6.7
2018-Aug-14 03:53S 27°39' E 153°23'0 0.0
2018-Aug-14 03:12S 27°39' E 153°23'0 0.0
2018-Aug-14 02:49S 27°39' E 153°23'1 3.3
2018-Aug-14 02:28S 27°38' E 153°22'3 4.4
2018-Aug-14 01:50S 27°37' E 153°19'3 9.0
2018-Aug-14 01:30S 27°38' E 153°22'3 4.1
2018-Aug-14 00:48S 27°37' E 153°19'3 9.5
2018-Aug-14 00:30S 27°38' E 153°22'3 2.5
2018-Aug-13 23:22S 27°37' E 153°19'3 8.2
2018-Aug-13 22:58S 27°38' E 153°22'3 5.3
2018-Aug-13 22:21S 27°37' E 153°19'411.0
2018-Aug-13 21:59S 27°39' E 153°23'4 5.3
2018-Aug-13 21:13S 27°37' E 153°19'313.4
2018-Aug-13 21:00S 27°38' E 153°22'1 0.1
2018-Aug-13 07:42S 27°39' E 153°23'1 6.0
2018-Aug-13 07:29S 27°38' E 153°22'1 1.7
2018-Aug-13 06:54S 27°39' E 153°21'1 1.7
2018-Aug-13 06:27S 27°39' E 153°22'1 2.1
2018-Aug-13 05:57S 27°38' E 153°21'1 2.5
2018-Aug-13 05:30S 27°38' E 153°22'1 2.3
2018-Aug-13 04:58S 27°38' E 153°20'1 2.3
2018-Aug-13 04:26S 27°39' E 153°22'1 1.9
2018-Aug-13 03:55S 27°38' E 153°21'1 2.6
2018-Aug-13 03:30S 27°38' E 153°22'2 4.1
2018-Aug-13 02:59S 27°37' E 153°19'3 6.8
2018-Aug-13 02:29S 27°39' E 153°23'0 0.1
2018-Aug-13 01:18S 27°39' E 153°23'1 3.5
2018-Aug-13 00:58S 27°38' E 153°22'1 1.9
2018-Aug-13 00:22S 27°38' E 153°21'2 5.8
2018-Aug-13 00:00S 27°39' E 153°23'4 7.4
2018-Aug-12 23:27S 27°37' E 153°19'4 7.4
2018-Aug-12 22:56S 27°39' E 153°23'4 3.3
2018-Aug-12 21:45S 27°37' E 153°19'414.5
2018-Aug-12 21:29S 27°39' E 153°23'4 6.4
2018-Aug-12 20:52S 27°37' E 153°19'3 8.9
2018-Aug-12 20:30S 27°38' E 153°23'4 5.7
2018-Aug-12 19:52S 27°37' E 153°19'410.2
2018-Aug-12 19:30S 27°38' E 153°23'4 5.0
2018-Aug-12 18:46S 27°37' E 153°19'413.8
2018-Aug-12 18:28S 27°39' E 153°23'0 0.0
2018-Aug-12 08:11S 27°38' E 153°23'1 6.6
2018-Aug-12 07:59S 27°38' E 153°22'3 4.6
2018-Aug-12 07:21S 27°37' E 153°19'3 8.4
2018-Aug-12 06:58S 27°38' E 153°22'1 1.5
2018-Aug-12 06:03S 27°39' E 153°21'113.9
2018-Aug-12 06:00S 27°39' E 153°22'2 3.5
2018-Aug-12 05:30S 27°38' E 153°20'2 3.6
2018-Aug-12 05:00S 27°38' E 153°22'0 0.1
2018-Aug-12 04:29S 27°38' E 153°22'3 4.1
2018-Aug-12 03:48S 27°37' E 153°19'412.9
2018-Aug-12 03:29S 27°39' E 153°23'4 6.2
2018-Aug-12 02:49S 27°37' E 153°19'412.1
2018-Aug-12 02:28S 27°38' E 153°23'4 6.5
2018-Aug-12 01:49S 27°37' E 153°19'3 7.8
2018-Aug-12 01:25S 27°38' E 153°22'3 5.0
2018-Aug-12 00:46S 27°37' E 153°19'413.2
2018-Aug-12 00:27S 27°38' E 153°23'4 6.4
2018-Aug-11 23:47S 27°37' E 153°19'412.7
2018-Aug-11 23:28S 27°39' E 153°23'4 3.8
2018-Aug-11 22:23S 27°37' E 153°19'3 7.6
2018-Aug-11 21:58S 27°38' E 153°22'3 5.2
2018-Aug-11 21:21S 27°37' E 153°19'3 9.8
2018-Aug-11 21:00S 27°38' E 153°23'0 0.0
2018-Aug-11 08:06S 27°38' E 153°22'0 4.3
2018-Aug-11 07:59S 27°38' E 153°22'1 1.5
2018-Aug-11 07:02S 27°38' E 153°23'116.1
2018-Aug-11 06:58S 27°38' E 153°22'1 1.7
2018-Aug-11 06:05S 27°39' E 153°21'210.2
2018-Aug-11 05:51S 27°38' E 153°24'4 7.2
2018-Aug-11 05:15S 27°37' E 153°19'311.2
2018-Aug-11 05:00S 27°38' E 153°22'0 0.4
2018-Aug-11 04:30S 27°38' E 153°22'3 3.9
2018-Aug-11 03:47S 27°37' E 153°19'413.1
2018-Aug-11 03:29S 27°39' E 153°23'3 4.5
2018-Aug-11 02:44S 27°37' E 153°20'312.3
2018-Aug-11 02:28S 27°39' E 153°23'4 9.1
2018-Aug-11 02:00S 27°37' E 153°19'4 7.8
2018-Aug-11 01:28S 27°39' E 153°23'4 6.0
2018-Aug-11 00:47S 27°37' E 153°19'412.7
2018-Aug-11 00:27S 27°38' E 153°23'4 6.6
2018-Aug-10 23:48S 27°37' E 153°19'412.3
2018-Aug-10 23:27S 27°38' E 153°23'4 7.4
2018-Aug-10 22:53S 27°37' E 153°19'0 0.0
2018-Aug-10 22:22S 27°37' E 153°19'4 9.3
2018-Aug-10 21:59S 27°38' E 153°23'4 5.8
2018-Aug-10 21:22S 27°37' E 153°19'4 0.4
2018-Aug-10 09:15S 27°38' E 153°23'2 6.9
2018-Aug-10 09:00S 27°38' E 153°21'1 1.4
2018-Aug-10 08:30S 27°39' E 153°21'1 1.4
2018-Aug-10 08:00S 27°38' E 153°21'0 0.6
2018-Aug-10 07:28S 27°39' E 153°21'0 0.8
2018-Aug-10 07:00S 27°38' E 153°21'1 1.0
2018-Aug-10 06:28S 27°39' E 153°21'0 0.3
2018-Aug-10 06:00S 27°39' E 153°21'1 1.6
2018-Aug-10 05:28S 27°38' E 153°22'0 0.2
2018-Aug-10 05:00S 27°38' E 153°22'3 5.3
2018-Aug-10 04:28S 27°37' E 153°19'4 2.3
2018-Aug-10 02:45S 27°39' E 153°23'1 4.3
2018-Aug-10 02:29S 27°38' E 153°22'1 1.7
2018-Aug-10 01:45S 27°38' E 153°20'2 7.1
2018-Aug-10 01:30S 27°38' E 153°22'3 4.7
2018-Aug-10 00:47S 27°37' E 153°19'310.1
2018-Aug-10 00:30S 27°38' E 153°22'1 1.0
2018-Aug-09 23:16S 27°39' E 153°21'2 7.9
2018-Aug-09 23:00S 27°38' E 153°23'4 5.9
2018-Aug-09 22:18S 27°37' E 153°19'412.4
2018-Aug-09 21:58S 27°39' E 153°23'4 5.0
2018-Aug-09 21:11S 27°37' E 153°19'315.8
2018-Aug-09 21:00S 27°38' E 153°22'1 0.0
2018-Aug-09 09:11S 27°38' E 153°22'1 5.6
2018-Aug-09 09:00S 27°38' E 153°21'1 1.0
2018-Aug-09 08:29S 27°39' E 153°21'0 0.9
2018-Aug-09 08:00S 27°38' E 153°21'0 0.6
2018-Aug-09 07:29S 27°39' E 153°21'0 0.9
2018-Aug-09 07:00S 27°38' E 153°21'1 1.2
2018-Aug-09 06:29S 27°39' E 153°21'0 0.4
2018-Aug-09 06:00S 27°39' E 153°21'0 0.2
2018-Aug-09 05:30S 27°39' E 153°21'1 2.2
2018-Aug-09 04:59S 27°38' E 153°22'1 1.6
2018-Aug-09 04:20S 27°39' E 153°21'1 0.8
2018-Aug-09 02:37S 27°38' E 153°22'1 5.2
2018-Aug-09 02:26S 27°38' E 153°21'0 0.7
2018-Aug-09 01:42S 27°39' E 153°21'1 5.8
2018-Aug-09 01:29S 27°38' E 153°22'1 1.6
2018-Aug-09 00:41S 27°39' E 153°21'2 7.6
2018-Aug-09 00:23S 27°38' E 153°23'2 1.9
2018-Aug-08 23:17S 27°39' E 153°21'1 3.6
2018-Aug-08 22:56S 27°38' E 153°22'1 1.2
2018-Aug-08 22:09S 27°38' E 153°21'1 3.8
2018-Aug-08 21:53S 27°38' E 153°22'1 1.2
2018-Aug-08 21:03S 27°38' E 153°21'1 8.9
2018-Aug-08 20:59S 27°38' E 153°22'1 0.0
2018-Aug-08 09:12S 27°38' E 153°22'1 5.2
2018-Aug-08 09:00S 27°38' E 153°21'0 0.9
2018-Aug-08 08:30S 27°39' E 153°21'1 1.2
2018-Aug-08 08:00S 27°38' E 153°21'0 0.8
2018-Aug-08 07:29S 27°39' E 153°21'0 0.8
2018-Aug-08 07:01S 27°38' E 153°21'1 1.0
2018-Aug-08 06:29S 27°39' E 153°21'1 1.7
2018-Aug-08 06:00S 27°38' E 153°22'1 1.6
2018-Aug-08 05:30S 27°39' E 153°21'1 2.4
2018-Aug-08 05:00S 27°38' E 153°22'3 5.2
2018-Aug-08 04:26S 27°37' E 153°19'4 2.5
2018-Aug-08 02:41S 27°38' E 153°24'2 7.1
2018-Aug-08 02:26S 27°38' E 153°22'3 4.2
2018-Aug-08 01:48S 27°37' E 153°19'310.2
2018-Aug-08 01:29S 27°38' E 153°22'3 4.7
2018-Aug-08 00:47S 27°37' E 153°19'310.0
2018-Aug-08 00:29S 27°38' E 153°22'  
Track history (hours):
 
Tides and Currents Weather Stations Pressure Air Temp Water Temp Dewpoint Dewpoint Depression Visibility Wind Speed Wind Dir Waves Ship Positions

Perulpa

Last reported at 2018-Aug-18 00:28 UTC. Time now 2018-Aug-18 00:45 UTC.
Position S 27°39' E 153°23'.

Length 24 m.

Type: Passenger vessel. MMSI: 503701100.

Date/timePositionNaut miles runAvg speedWind from/ knotsBaromVisibWave heightAir tempDewpointWater temp
2018-Aug-18 00:28S 27°39' E 153°23'4 6.4
2018-Aug-17 23:51S 27°37' E 153°19'410.7
2018-Aug-17 23:28S 27°39' E 153°23'4 4.4
2018-Aug-17 22:32S 27°37' E 153°19'0 0.1
2018-Aug-17 22:28S 27°37' E 153°19'4 8.1
2018-Aug-17 22:00S 27°38' E 153°23'4 5.8
2018-Aug-17 21:21S 27°37' E 153°19'410.8
2018-Aug-17 21:00S 27°38' E 153°23'1 0.0
2018-Aug-17 09:17S 27°39' E 153°23'2 6.6
2018-Aug-17 08:59S 27°39' E 153°21'1 2.2
2018-Aug-17 08:30S 27°38' E 153°22'1 1.5
2018-Aug-17 08:00S 27°39' E 153°21'0 0.8
2018-Aug-17 07:30S 27°39' E 153°21'1 1.6
2018-Aug-17 07:00S 27°38' E 153°22'1 1.0
2018-Aug-17 06:28S 27°39' E 153°21'0 0.8
2018-Aug-17 06:00S 27°38' E 153°21'0 0.4
2018-Aug-17 05:30S 27°38' E 153°21'1 1.0
2018-Aug-17 05:00S 27°38' E 153°22'1 1.6
2018-Aug-17 04:20S 27°39' E 153°21'2 0.6
2018-Aug-17 01:30S 27°39' E 153°23'3 6.4
2018-Aug-17 00:58S 27°35' E 153°24'3 0.2
2018-Aug-16 09:17S 27°39' E 153°23'2 5.7
2018-Aug-16 09:00S 27°38' E 153°21'0 0.3
2018-Aug-16 08:29S 27°38' E 153°21'0 0.8
2018-Aug-16 07:59S 27°39' E 153°21'0 0.5
2018-Aug-16 07:30S 27°39' E 153°21'0 0.7
2018-Aug-16 07:01S 27°38' E 153°21'0 0.7
2018-Aug-16 06:30S 27°39' E 153°21'0 0.8
2018-Aug-16 06:00S 27°38' E 153°21'0 0.1
2018-Aug-16 05:28S 27°38' E 153°21'1 1.5
2018-Aug-16 04:57S 27°38' E 153°22'3 5.6
2018-Aug-16 04:28S 27°37' E 153°19'4 2.3
2018-Aug-16 02:46S 27°39' E 153°23'2 4.3
2018-Aug-16 02:24S 27°39' E 153°21'1 0.8
2018-Aug-16 01:44S 27°38' E 153°21'1 6.1
2018-Aug-16 01:30S 27°38' E 153°22'2 2.1
2018-Aug-16 00:45S 27°38' E 153°20'2 6.4
2018-Aug-16 00:26S 27°38' E 153°23'4 3.5
2018-Aug-15 23:24S 27°37' E 153°19'3 7.9
2018-Aug-15 22:59S 27°38' E 153°22'3 3.5
2018-Aug-15 22:16S 27°37' E 153°20'411.4
2018-Aug-15 21:58S 27°38' E 153°23'4 5.7
2018-Aug-15 21:13S 27°37' E 153°19'313.2
2018-Aug-15 21:00S 27°38' E 153°22'1 0.1
2018-Aug-15 09:16S 27°38' E 153°23'2 6.2
2018-Aug-15 09:00S 27°38' E 153°21'1 1.1
2018-Aug-15 08:30S 27°39' E 153°21'0 0.9
2018-Aug-15 08:00S 27°38' E 153°21'0 0.8
2018-Aug-15 07:29S 27°39' E 153°21'0 1.0
2018-Aug-15 07:00S 27°38' E 153°21'0 0.4
2018-Aug-15 06:30S 27°38' E 153°21'0 0.8
2018-Aug-15 06:00S 27°38' E 153°22'1 1.3
2018-Aug-15 05:30S 27°39' E 153°21'1 2.1
2018-Aug-15 05:01S 27°38' E 153°22'3 5.3
2018-Aug-15 04:27S 27°37' E 153°19'4 2.4
2018-Aug-15 02:48S 27°39' E 153°23'1 4.1
2018-Aug-15 02:31S 27°38' E 153°22'3 4.3
2018-Aug-15 01:50S 27°37' E 153°19'3 9.1
2018-Aug-15 01:29S 27°38' E 153°22'2 2.0
2018-Aug-15 00:44S 27°39' E 153°21'2 6.2
2018-Aug-15 00:28S 27°38' E 153°22'3 2.9
2018-Aug-14 23:23S 27°37' E 153°19'3 7.8
2018-Aug-14 22:59S 27°38' E 153°22'3 4.6
2018-Aug-14 22:16S 27°37' E 153°19'413.2
2018-Aug-14 21:57S 27°38' E 153°23'4 5.7
2018-Aug-14 21:12S 27°37' E 153°19'313.4
2018-Aug-14 20:59S 27°38' E 153°22'1 0.1
2018-Aug-14 09:16S 27°38' E 153°24'2 7.4
2018-Aug-14 09:00S 27°38' E 153°21'0 0.8
2018-Aug-14 08:30S 27°39' E 153°21'0 0.2
2018-Aug-14 08:00S 27°39' E 153°21'0 0.5
2018-Aug-14 07:29S 27°39' E 153°21'0 0.0
2018-Aug-14 06:59S 27°39' E 153°21'1 1.4
2018-Aug-14 06:31S 27°38' E 153°21'1 1.3
2018-Aug-14 05:59S 27°38' E 153°21'0 1.0
2018-Aug-14 05:30S 27°39' E 153°21'1 2.1
2018-Aug-14 05:00S 27°38' E 153°22'3 5.4
2018-Aug-14 04:29S 27°37' E 153°19'4 6.7
2018-Aug-14 03:53S 27°39' E 153°23'0 0.0
2018-Aug-14 03:12S 27°39' E 153°23'0 0.0
2018-Aug-14 02:49S 27°39' E 153°23'1 3.3
2018-Aug-14 02:28S 27°38' E 153°22'3 4.4
2018-Aug-14 01:50S 27°37' E 153°19'3 9.0
2018-Aug-14 01:30S 27°38' E 153°22'3 4.1
2018-Aug-14 00:48S 27°37' E 153°19'3 9.5
2018-Aug-14 00:30S 27°38' E 153°22'3 2.5
2018-Aug-13 23:22S 27°37' E 153°19'3 8.2
2018-Aug-13 22:58S 27°38' E 153°22'3 5.3
2018-Aug-13 22:21S 27°37' E 153°19'411.0
2018-Aug-13 21:59S 27°39' E 153°23'4 5.3
2018-Aug-13 21:13S 27°37' E 153°19'313.4
2018-Aug-13 21:00S 27°38' E 153°22'1 0.1
2018-Aug-13 07:42S 27°39' E 153°23'1 6.0
2018-Aug-13 07:29S 27°38' E 153°22'1 1.7
2018-Aug-13 06:54S 27°39' E 153°21'1 1.7
2018-Aug-13 06:27S 27°39' E 153°22'1 2.1
2018-Aug-13 05:57S 27°38' E 153°21'1 2.5
2018-Aug-13 05:30S 27°38' E 153°22'1 2.3
2018-Aug-13 04:58S 27°38' E 153°20'1 2.3
2018-Aug-13 04:26S 27°39' E 153°22'1 1.9
2018-Aug-13 03:55S 27°38' E 153°21'1 2.6
2018-Aug-13 03:30S 27°38' E 153°22'2 4.1
2018-Aug-13 02:59S 27°37' E 153°19'3 6.8
2018-Aug-13 02:29S 27°39' E 153°23'0 0.1
2018-Aug-13 01:18S 27°39' E 153°23'1 3.5
2018-Aug-13 00:58S 27°38' E 153°22'1 1.9
2018-Aug-13 00:22S 27°38' E 153°21'2 5.8
2018-Aug-13 00:00S 27°39' E 153°23'4 7.4
2018-Aug-12 23:27S 27°37' E 153°19'4 7.4
2018-Aug-12 22:56S 27°39' E 153°23'4 3.3
2018-Aug-12 21:45S 27°37' E 153°19'414.5
2018-Aug-12 21:29S 27°39' E 153°23'4 6.4
2018-Aug-12 20:52S 27°37' E 153°19'3 8.9
2018-Aug-12 20:30S 27°38' E 153°23'4 5.7
2018-Aug-12 19:52S 27°37' E 153°19'410.2
2018-Aug-12 19:30S 27°38' E 153°23'4 5.0
2018-Aug-12 18:46S 27°37' E 153°19'413.8
2018-Aug-12 18:28S 27°39' E 153°23'0 0.0
2018-Aug-12 08:11S 27°38' E 153°23'1 6.6
2018-Aug-12 07:59S 27°38' E 153°22'3 4.6
2018-Aug-12 07:21S 27°37' E 153°19'3 8.4
2018-Aug-12 06:58S 27°38' E 153°22'1 1.5
2018-Aug-12 06:03S 27°39' E 153°21'113.9
2018-Aug-12 06:00S 27°39' E 153°22'2 3.5
2018-Aug-12 05:30S 27°38' E 153°20'2 3.6
2018-Aug-12 05:00S 27°38' E 153°22'0 0.1
2018-Aug-12 04:29S 27°38' E 153°22'3 4.1
2018-Aug-12 03:48S 27°37' E 153°19'412.9
2018-Aug-12 03:29S 27°39' E 153°23'4 6.2
2018-Aug-12 02:49S 27°37' E 153°19'412.1
2018-Aug-12 02:28S 27°38' E 153°23'4 6.5
2018-Aug-12 01:49S 27°37' E 153°19'3 7.8
2018-Aug-12 01:25S 27°38' E 153°22'3 5.0
2018-Aug-12 00:46S 27°37' E 153°19'413.2
2018-Aug-12 00:27S 27°38' E 153°23'4 6.4
2018-Aug-11 23:47S 27°37' E 153°19'412.7
2018-Aug-11 23:28S 27°39' E 153°23'4 3.8
2018-Aug-11 22:23S 27°37' E 153°19'3 7.6
2018-Aug-11 21:58S 27°38' E 153°22'3 5.2
2018-Aug-11 21:21S 27°37' E 153°19'3 9.8
2018-Aug-11 21:00S 27°38' E 153°23'0 0.0
2018-Aug-11 08:06S 27°38' E 153°22'0 4.3
2018-Aug-11 07:59S 27°38' E 153°22'1 1.5
2018-Aug-11 07:02S 27°38' E 153°23'116.1
2018-Aug-11 06:58S 27°38' E 153°22'1 1.7
2018-Aug-11 06:05S 27°39' E 153°21'210.2
2018-Aug-11 05:51S 27°38' E 153°24'4 7.2
2018-Aug-11 05:15S 27°37' E 153°19'311.2
2018-Aug-11 05:00S 27°38' E 153°22'0 0.4
2018-Aug-11 04:30S 27°38' E 153°22'3 3.9
2018-Aug-11 03:47S 27°37' E 153°19'413.1
2018-Aug-11 03:29S 27°39' E 153°23'3 4.5
2018-Aug-11 02:44S 27°37' E 153°20'312.3
2018-Aug-11 02:28S 27°39' E 153°23'4 9.1
2018-Aug-11 02:00S 27°37' E 153°19'4 7.8
2018-Aug-11 01:28S 27°39' E 153°23'4 6.0
2018-Aug-11 00:47S 27°37' E 153°19'412.7
2018-Aug-11 00:27S 27°38' E 153°23'4 6.6
2018-Aug-10 23:48S 27°37' E 153°19'412.3
2018-Aug-10 23:27S 27°38' E 153°23'4 7.4
2018-Aug-10 22:53S 27°37' E 153°19'0 0.0
2018-Aug-10 22:22S 27°37' E 153°19'4 9.3
2018-Aug-10 21:59S 27°38' E 153°23'4 5.8
2018-Aug-10 21:22S 27°37' E 153°19'4 0.4
2018-Aug-10 09:15S 27°38' E 153°23'2 6.9
2018-Aug-10 09:00S 27°38' E 153°21'1 1.4
2018-Aug-10 08:30S 27°39' E 153°21'1 1.4
2018-Aug-10 08:00S 27°38' E 153°21'0 0.6
2018-Aug-10 07:28S 27°39' E 153°21'0 0.8
2018-Aug-10 07:00S 27°38' E 153°21'1 1.0
2018-Aug-10 06:28S 27°39' E 153°21'0 0.3
2018-Aug-10 06:00S 27°39' E 153°21'1 1.6
2018-Aug-10 05:28S 27°38' E 153°22'0 0.2
2018-Aug-10 05:00S 27°38' E 153°22'3 5.3
2018-Aug-10 04:28S 27°37' E 153°19'4 2.3
2018-Aug-10 02:45S 27°39' E 153°23'1 4.3
2018-Aug-10 02:29S 27°38' E 153°22'1 1.7
2018-Aug-10 01:45S 27°38' E 153°20'2 7.1
2018-Aug-10 01:30S 27°38' E 153°22'3 4.7
2018-Aug-10 00:47S 27°37' E 153°19'310.1
2018-Aug-10 00:30S 27°38' E 153°22'1 1.0
2018-Aug-09 23:16S 27°39' E 153°21'2 7.9
2018-Aug-09 23:00S 27°38' E 153°23'4 5.9
2018-Aug-09 22:18S 27°37' E 153°19'412.4
2018-Aug-09 21:58S 27°39' E 153°23'4 5.0
2018-Aug-09 21:11S 27°37' E 153°19'315.8
2018-Aug-09 21:00S 27°38' E 153°22'1 0.0
2018-Aug-09 09:11S 27°38' E 153°22'1 5.6
2018-Aug-09 09:00S 27°38' E 153°21'1 1.0
2018-Aug-09 08:29S 27°39' E 153°21'0 0.9
2018-Aug-09 08:00S 27°38' E 153°21'0 0.6
2018-Aug-09 07:29S 27°39' E 153°21'0 0.9
2018-Aug-09 07:00S 27°38' E 153°21'1 1.2
2018-Aug-09 06:29S 27°39' E 153°21'0 0.4
2018-Aug-09 06:00S 27°39' E 153°21'0 0.2
2018-Aug-09 05:30S 27°39' E 153°21'1 2.2
2018-Aug-09 04:59S 27°38' E 153°22'1 1.6
2018-Aug-09 04:20S 27°39' E 153°21'1 0.8
2018-Aug-09 02:37S 27°38' E 153°22'1 5.2
2018-Aug-09 02:26S 27°38' E 153°21'0 0.7
2018-Aug-09 01:42S 27°39' E 153°21'1 5.8
2018-Aug-09 01:29S 27°38' E 153°22'1 1.6
2018-Aug-09 00:41S 27°39' E 153°21'2 7.6
2018-Aug-09 00:23S 27°38' E 153°23'2 1.9
2018-Aug-08 23:17S 27°39' E 153°21'1 3.6
2018-Aug-08 22:56S 27°38' E 153°22'1 1.2
2018-Aug-08 22:09S 27°38' E 153°21'1 3.8
2018-Aug-08 21:53S 27°38' E 153°22'1 1.2
2018-Aug-08 21:03S 27°38' E 153°21'1 8.9
2018-Aug-08 20:59S 27°38' E 153°22'1 0.0
2018-Aug-08 09:12S 27°38' E 153°22'1 5.2
2018-Aug-08 09:00S 27°38' E 153°21'0 0.9
2018-Aug-08 08:30S 27°39' E 153°21'1 1.2
2018-Aug-08 08:00S 27°38' E 153°21'0 0.8
2018-Aug-08 07:29S 27°39' E 153°21'0 0.8
2018-Aug-08 07:01S 27°38' E 153°21'1 1.0
2018-Aug-08 06:29S 27°39' E 153°21'1 1.7
2018-Aug-08 06:00S 27°38' E 153°22'1 1.6
2018-Aug-08 05:30S 27°39' E 153°21'1 2.4
2018-Aug-08 05:00S 27°38' E 153°22'3 5.2
2018-Aug-08 04:26S 27°37' E 153°19'4 2.5
2018-Aug-08 02:41S 27°38' E 153°24'2 7.1
2018-Aug-08 02:26S 27°38' E 153°22'3 4.2
2018-Aug-08 01:48S 27°37' E 153°19'310.2
2018-Aug-08 01:29S 27°38' E 153°22'3 4.7
2018-Aug-08 00:47S 27°37' E 153°19'310.0
2018-Aug-08 00:29S 27°38' E 153°22'  

Dump ship's entire track history